sensor_id;sensor_type;location;lat;lon;timestamp;P1;durP1;ratioP1;P2;durP2;ratioP2
52574;SDS011;38468;48.114;-1.684;2023-03-01T00:00:25;22.60;;;18.17;;
52574;SDS011;38468;48.114;-1.684;2023-03-01T00:02:25;21.10;;;17.60;;
52574;SDS011;38468;48.114;-1.684;2023-03-01T00:04:26;27.20;;;19.38;;
52574;SDS011;38468;48.114;-1.684;2023-03-01T00:06:27;26.63;;;18.80;;
52574;SDS011;38468;48.114;-1.684;2023-03-01T00:08:28;24.55;;;18.00;;
52574;SDS011;38468;48.114;-1.684;2023-03-01T00:10:30;22.67;;;17.13;;
52574;SDS011;38468;48.114;-1.684;2023-03-01T00:12:31;21.85;;;18.25;;
52574;SDS011;38468;48.114;-1.684;2023-03-01T00:14:32;19.90;;;16.80;;
52574;SDS011;38468;48.114;-1.684;2023-03-01T00:16:36;24.10;;;17.65;;
52574;SDS011;38468;48.114;-1.684;2023-03-01T00:18:39;24.45;;;19.17;;
52574;SDS011;38468;48.114;-1.684;2023-03-01T00:20:40;22.98;;;16.42;;
52574;SDS011;38468;48.114;-1.684;2023-03-01T00:22:40;24.65;;;17.80;;
52574;SDS011;38468;48.114;-1.684;2023-03-01T00:24:41;24.23;;;18.48;;
52574;SDS011;38468;48.114;-1.684;2023-03-01T00:26:42;24.73;;;17.98;;
52574;SDS011;38468;48.114;-1.684;2023-03-01T00:28:42;23.52;;;18.92;;
52574;SDS011;38468;48.114;-1.684;2023-03-01T00:30:43;22.05;;;17.85;;
52574;SDS011;38468;48.114;-1.684;2023-03-01T00:32:44;23.65;;;18.65;;
52574;SDS011;38468;48.114;-1.684;2023-03-01T00:34:44;25.02;;;19.33;;
52574;SDS011;38468;48.114;-1.684;2023-03-01T00:36:57;22.10;;;17.60;;
52574;SDS011;38468;48.114;-1.684;2023-03-01T00:39:05;23.05;;;17.75;;
52574;SDS011;38468;48.114;-1.684;2023-03-01T00:41:11;23.67;;;18.70;;
52574;SDS011;38468;48.114;-1.684;2023-03-01T00:43:14;26.70;;;18.95;;
52574;SDS011;38468;48.114;-1.684;2023-03-01T00:45:14;19.27;;;16.75;;
52574;SDS011;38468;48.114;-1.684;2023-03-01T00:47:15;21.33;;;17.92;;
52574;SDS011;38468;48.114;-1.684;2023-03-01T00:49:16;21.30;;;17.00;;
52574;SDS011;38468;48.114;-1.684;2023-03-01T00:51:20;23.50;;;18.20;;
52574;SDS011;38468;48.114;-1.684;2023-03-01T00:53:23;21.73;;;17.52;;
52574;SDS011;38468;48.114;-1.684;2023-03-01T00:55:24;22.98;;;18.67;;
52574;SDS011;38468;48.114;-1.684;2023-03-01T00:57:25;22.40;;;17.00;;
52574;SDS011;38468;48.114;-1.684;2023-03-01T00:59:26;24.52;;;19.30;;
52574;SDS011;38468;48.114;-1.684;2023-03-01T01:01:28;25.05;;;18.23;;
52574;SDS011;38468;48.114;-1.684;2023-03-01T01:03:30;22.15;;;19.08;;
52574;SDS011;38468;48.114;-1.684;2023-03-01T01:05:30;22.27;;;17.90;;
52574;SDS011;38468;48.114;-1.684;2023-03-01T01:07:34;25.33;;;19.30;;
52574;SDS011;38468;48.114;-1.684;2023-03-01T01:09:35;22.60;;;18.13;;
52574;SDS011;38468;48.114;-1.684;2023-03-01T01:11:36;22.38;;;18.15;;
52574;SDS011;38468;48.114;-1.684;2023-03-01T01:13:37;23.95;;;18.48;;
52574;SDS011;38468;48.114;-1.684;2023-03-01T01:15:38;24.50;;;19.37;;
52574;SDS011;38468;48.114;-1.684;2023-03-01T01:17:40;22.48;;;18.95;;
52574;SDS011;38468;48.114;-1.684;2023-03-01T01:19:40;29.25;;;19.83;;
52574;SDS011;38468;48.114;-1.684;2023-03-01T01:21:41;24.77;;;18.75;;
52574;SDS011;38468;48.114;-1.684;2023-03-01T01:23:46;25.05;;;19.95;;
52574;SDS011;38468;48.114;-1.684;2023-03-01T01:25:47;23.55;;;18.30;;
52574;SDS011;38468;48.114;-1.684;2023-03-01T01:27:47;25.85;;;20.25;;
52574;SDS011;38468;48.114;-1.684;2023-03-01T01:29:48;25.48;;;19.35;;
52574;SDS011;38468;48.114;-1.684;2023-03-01T01:31:49;28.75;;;21.08;;
52574;SDS011;38468;48.114;-1.684;2023-03-01T01:33:50;31.42;;;21.13;;
52574;SDS011;38468;48.114;-1.684;2023-03-01T01:35:51;24.13;;;19.73;;
52574;SDS011;38468;48.114;-1.684;2023-03-01T01:37:52;27.30;;;20.08;;
52574;SDS011;38468;48.114;-1.684;2023-03-01T01:39:52;25.73;;;21.23;;
52574;SDS011;38468;48.114;-1.684;2023-03-01T01:41:53;28.48;;;21.33;;
52574;SDS011;38468;48.114;-1.684;2023-03-01T01:44:16;22.33;;;18.40;;
52574;SDS011;38468;48.114;-1.684;2023-03-01T01:46:29;24.20;;;19.42;;
52574;SDS011;38468;48.114;-1.684;2023-03-01T01:48:34;26.95;;;21.02;;
52574;SDS011;38468;48.114;-1.684;2023-03-01T01:50:41;26.58;;;21.50;;
52574;SDS011;38468;48.114;-1.684;2023-03-01T01:52:44;25.17;;;19.58;;
52574;SDS011;38468;48.114;-1.684;2023-03-01T01:54:55;25.27;;;19.75;;
52574;SDS011;38468;48.114;-1.684;2023-03-01T01:56:58;26.90;;;21.92;;
52574;SDS011;38468;48.114;-1.684;2023-03-01T01:59:01;25.00;;;19.63;;
52574;SDS011;38468;48.114;-1.684;2023-03-01T02:01:02;26.83;;;20.30;;
52574;SDS011;38468;48.114;-1.684;2023-03-01T02:03:11;24.10;;;19.92;;
52574;SDS011;38468;48.114;-1.684;2023-03-01T02:05:20;26.95;;;20.20;;
52574;SDS011;38468;48.114;-1.684;2023-03-01T02:07:22;24.88;;;19.15;;
52574;SDS011;38468;48.114;-1.684;2023-03-01T02:09:24;27.40;;;20.38;;
52574;SDS011;38468;48.114;-1.684;2023-03-01T02:11:27;26.67;;;19.45;;
52574;SDS011;38468;48.114;-1.684;2023-03-01T02:13:33;25.27;;;20.17;;
52574;SDS011;38468;48.114;-1.684;2023-03-01T02:15:34;25.42;;;19.95;;
52574;SDS011;38468;48.114;-1.684;2023-03-01T02:17:36;20.48;;;16.88;;
52574;SDS011;38468;48.114;-1.684;2023-03-01T02:22:12;24.25;;;18.45;;
52574;SDS011;38468;48.114;-1.684;2023-03-01T02:24:25;27.83;;;19.52;;
52574;SDS011;38468;48.114;-1.684;2023-03-01T02:26:46;22.83;;;18.23;;
52574;SDS011;38468;48.114;-1.684;2023-03-01T02:28:54;23.00;;;18.23;;
52574;SDS011;38468;48.114;-1.684;2023-03-01T02:30:55;22.60;;;18.55;;
52574;SDS011;38468;48.114;-1.684;2023-03-01T02:33:14;22.85;;;18.90;;
52574;SDS011;38468;48.114;-1.684;2023-03-01T02:35:16;23.95;;;17.38;;
52574;SDS011;38468;48.114;-1.684;2023-03-01T02:37:19;22.17;;;17.55;;
52574;SDS011;38468;48.114;-1.684;2023-03-01T02:39:29;21.73;;;17.92;;
52574;SDS011;38468;48.114;-1.684;2023-03-01T02:41:38;22.25;;;17.60;;
52574;SDS011;38468;48.114;-1.684;2023-03-01T02:43:41;24.52;;;18.95;;
52574;SDS011;38468;48.114;-1.684;2023-03-01T02:45:51;24.75;;;17.70;;
52574;SDS011;38468;48.114;-1.684;2023-03-01T02:47:53;22.48;;;17.05;;
52574;SDS011;38468;48.114;-1.684;2023-03-01T02:49:55;22.52;;;16.35;;
52574;SDS011;38468;48.114;-1.684;2023-03-01T02:54:24;22.15;;;16.88;;
52574;SDS011;38468;48.114;-1.684;2023-03-01T02:56:31;21.38;;;17.27;;
52574;SDS011;38468;48.114;-1.684;2023-03-01T02:58:32;24.17;;;20.20;;
52574;SDS011;38468;48.114;-1.684;2023-03-01T03:00:41;20.65;;;17.67;;
52574;SDS011;38468;48.114;-1.684;2023-03-01T03:02:50;22.08;;;18.73;;
52574;SDS011;38468;48.114;-1.684;2023-03-01T03:04:52;22.67;;;16.98;;
52574;SDS011;38468;48.114;-1.684;2023-03-01T03:06:52;22.48;;;17.05;;
52574;SDS011;38468;48.114;-1.684;2023-03-01T03:08:53;25.00;;;17.02;;
52574;SDS011;38468;48.114;-1.684;2023-03-01T03:10:54;21.15;;;16.60;;
52574;SDS011;38468;48.114;-1.684;2023-03-01T03:12:58;20.33;;;16.60;;
52574;SDS011;38468;48.114;-1.684;2023-03-01T03:15:04;22.65;;;17.13;;
52574;SDS011;38468;48.114;-1.684;2023-03-01T03:17:08;24.48;;;17.85;;
52574;SDS011;38468;48.114;-1.684;2023-03-01T03:19:09;25.92;;;17.23;;
52574;SDS011;38468;48.114;-1.684;2023-03-01T03:21:11;24.33;;;18.37;;
52574;SDS011;38468;48.114;-1.684;2023-03-01T03:23:12;23.63;;;18.50;;
52574;SDS011;38468;48.114;-1.684;2023-03-01T03:25:13;24.60;;;17.45;;
52574;SDS011;38468;48.114;-1.684;2023-03-01T03:27:14;23.65;;;18.58;;
52574;SDS011;38468;48.114;-1.684;2023-03-01T03:29:14;25.67;;;19.35;;
52574;SDS011;38468;48.114;-1.684;2023-03-01T03:31:15;21.30;;;17.65;;
52574;SDS011;38468;48.114;-1.684;2023-03-01T03:33:16;24.83;;;17.25;;
52574;SDS011;38468;48.114;-1.684;2023-03-01T03:35:16;20.75;;;18.05;;
52574;SDS011;38468;48.114;-1.684;2023-03-01T03:37:21;24.50;;;18.35;;
52574;SDS011;38468;48.114;-1.684;2023-03-01T03:39:40;24.23;;;17.67;;
52574;SDS011;38468;48.114;-1.684;2023-03-01T03:41:41;23.42;;;17.98;;
52574;SDS011;38468;48.114;-1.684;2023-03-01T03:43:42;22.75;;;19.17;;
52574;SDS011;38468;48.114;-1.684;2023-03-01T03:45:43;22.77;;;17.77;;
52574;SDS011;38468;48.114;-1.684;2023-03-01T03:47:45;23.63;;;18.08;;
52574;SDS011;38468;48.114;-1.684;2023-03-01T03:49:45;22.52;;;17.73;;
52574;SDS011;38468;48.114;-1.684;2023-03-01T03:51:46;22.92;;;17.30;;
52574;SDS011;38468;48.114;-1.684;2023-03-01T03:53:46;22.30;;;17.95;;
52574;SDS011;38468;48.114;-1.684;2023-03-01T03:55:47;22.63;;;17.30;;
52574;SDS011;38468;48.114;-1.684;2023-03-01T03:57:51;19.02;;;16.80;;
52574;SDS011;38468;48.114;-1.684;2023-03-01T03:59:53;22.90;;;17.10;;
52574;SDS011;38468;48.114;-1.684;2023-03-01T04:01:54;22.50;;;17.92;;
52574;SDS011;38468;48.114;-1.684;2023-03-01T04:03:55;22.30;;;18.48;;
52574;SDS011;38468;48.114;-1.684;2023-03-01T04:05:59;21.27;;;17.73;;
52574;SDS011;38468;48.114;-1.684;2023-03-01T04:08:01;18.30;;;15.20;;
52574;SDS011;38468;48.114;-1.684;2023-03-01T04:10:05;22.95;;;17.38;;
52574;SDS011;38468;48.114;-1.684;2023-03-01T04:12:08;20.13;;;15.82;;
52574;SDS011;38468;48.114;-1.684;2023-03-01T04:14:09;21.73;;;17.95;;
52574;SDS011;38468;48.114;-1.684;2023-03-01T04:16:10;22.00;;;17.77;;
52574;SDS011;38468;48.114;-1.684;2023-03-01T04:18:14;20.10;;;15.82;;
52574;SDS011;38468;48.114;-1.684;2023-03-01T04:20:17;20.90;;;17.42;;
52574;SDS011;38468;48.114;-1.684;2023-03-01T04:22:24;19.25;;;16.40;;
52574;SDS011;38468;48.114;-1.684;2023-03-01T04:24:29;20.20;;;15.95;;
52574;SDS011;38468;48.114;-1.684;2023-03-01T04:26:30;21.20;;;16.65;;
52574;SDS011;38468;48.114;-1.684;2023-03-01T04:28:40;21.77;;;15.55;;
52574;SDS011;38468;48.114;-1.684;2023-03-01T04:30:45;23.63;;;16.98;;
52574;SDS011;38468;48.114;-1.684;2023-03-01T04:32:45;20.83;;;15.82;;
52574;SDS011;38468;48.114;-1.684;2023-03-01T04:34:46;18.27;;;15.50;;
52574;SDS011;38468;48.114;-1.684;2023-03-01T04:36:48;21.65;;;16.92;;
52574;SDS011;38468;48.114;-1.684;2023-03-01T04:38:48;19.48;;;16.58;;
52574;SDS011;38468;48.114;-1.684;2023-03-01T04:40:49;23.17;;;17.05;;
52574;SDS011;38468;48.114;-1.684;2023-03-01T04:42:50;22.48;;;16.33;;
52574;SDS011;38468;48.114;-1.684;2023-03-01T04:44:51;23.23;;;17.50;;
52574;SDS011;38468;48.114;-1.684;2023-03-01T04:46:51;21.30;;;15.57;;
52574;SDS011;38468;48.114;-1.684;2023-03-01T04:48:52;24.38;;;15.68;;
52574;SDS011;38468;48.114;-1.684;2023-03-01T04:50:53;25.48;;;17.30;;
52574;SDS011;38468;48.114;-1.684;2023-03-01T04:52:53;21.60;;;15.05;;
52574;SDS011;38468;48.114;-1.684;2023-03-01T04:54:58;26.08;;;16.02;;
52574;SDS011;38468;48.114;-1.684;2023-03-01T04:56:59;20.42;;;15.73;;
52574;SDS011;38468;48.114;-1.684;2023-03-01T04:59:00;19.67;;;16.50;;
52574;SDS011;38468;48.114;-1.684;2023-03-01T05:01:01;20.83;;;15.63;;
52574;SDS011;38468;48.114;-1.684;2023-03-01T05:03:01;19.60;;;15.60;;
52574;SDS011;38468;48.114;-1.684;2023-03-01T05:05:02;20.83;;;15.82;;
52574;SDS011;38468;48.114;-1.684;2023-03-01T05:07:03;19.42;;;15.98;;
52574;SDS011;38468;48.114;-1.684;2023-03-01T05:09:03;21.48;;;16.95;;
52574;SDS011;38468;48.114;-1.684;2023-03-01T05:11:04;19.15;;;16.52;;
52574;SDS011;38468;48.114;-1.684;2023-03-01T05:13:05;20.05;;;15.38;;
52574;SDS011;38468;48.114;-1.684;2023-03-01T05:15:06;19.92;;;15.38;;
52574;SDS011;38468;48.114;-1.684;2023-03-01T05:17:07;19.40;;;15.95;;
52574;SDS011;38468;48.114;-1.684;2023-03-01T05:19:08;21.80;;;15.00;;
52574;SDS011;38468;48.114;-1.684;2023-03-01T05:21:16;23.10;;;15.15;;
52574;SDS011;38468;48.114;-1.684;2023-03-01T05:23:17;20.55;;;16.25;;
52574;SDS011;38468;48.114;-1.684;2023-03-01T05:25:18;21.23;;;17.25;;
52574;SDS011;38468;48.114;-1.684;2023-03-01T05:27:19;21.83;;;16.85;;
52574;SDS011;38468;48.114;-1.684;2023-03-01T05:29:22;21.75;;;16.27;;
52574;SDS011;38468;48.114;-1.684;2023-03-01T05:31:27;21.00;;;15.95;;
52574;SDS011;38468;48.114;-1.684;2023-03-01T05:33:28;22.40;;;16.15;;
52574;SDS011;38468;48.114;-1.684;2023-03-01T05:35:29;22.42;;;16.52;;
52574;SDS011;38468;48.114;-1.684;2023-03-01T05:37:32;18.88;;;15.30;;
52574;SDS011;38468;48.114;-1.684;2023-03-01T05:39:33;20.08;;;15.40;;
52574;SDS011;38468;48.114;-1.684;2023-03-01T05:41:33;19.73;;;15.60;;
52574;SDS011;38468;48.114;-1.684;2023-03-01T05:43:34;24.15;;;15.73;;
52574;SDS011;38468;48.114;-1.684;2023-03-01T05:45:35;19.73;;;16.85;;
52574;SDS011;38468;48.114;-1.684;2023-03-01T05:49:43;19.60;;;15.45;;
52574;SDS011;38468;48.114;-1.684;2023-03-01T05:51:47;26.00;;;16.17;;
52574;SDS011;38468;48.114;-1.684;2023-03-01T05:53:48;22.23;;;17.75;;
52574;SDS011;38468;48.114;-1.684;2023-03-01T05:55:49;21.00;;;16.45;;
52574;SDS011;38468;48.114;-1.684;2023-03-01T05:57:51;18.58;;;15.52;;
52574;SDS011;38468;48.114;-1.684;2023-03-01T05:59:52;35.30;;;15.77;;
52574;SDS011;38468;48.114;-1.684;2023-03-01T06:01:52;21.80;;;14.73;;
52574;SDS011;38468;48.114;-1.684;2023-03-01T06:03:53;18.50;;;15.63;;
52574;SDS011;38468;48.114;-1.684;2023-03-01T06:05:57;19.42;;;14.60;;
52574;SDS011;38468;48.114;-1.684;2023-03-01T06:07:58;19.98;;;15.73;;
52574;SDS011;38468;48.114;-1.684;2023-03-01T06:10:00;19.58;;;15.27;;
52574;SDS011;38468;48.114;-1.684;2023-03-01T06:12:01;21.60;;;15.85;;
52574;SDS011;38468;48.114;-1.684;2023-03-01T06:14:02;20.48;;;16.98;;
52574;SDS011;38468;48.114;-1.684;2023-03-01T06:16:06;20.23;;;15.45;;
52574;SDS011;38468;48.114;-1.684;2023-03-01T06:18:07;16.15;;;13.98;;
52574;SDS011;38468;48.114;-1.684;2023-03-01T06:20:15;18.87;;;14.80;;
52574;SDS011;38468;48.114;-1.684;2023-03-01T06:22:20;24.23;;;18.25;;
52574;SDS011;38468;48.114;-1.684;2023-03-01T06:24:21;24.30;;;16.48;;
52574;SDS011;38468;48.114;-1.684;2023-03-01T06:26:21;16.63;;;14.68;;
52574;SDS011;38468;48.114;-1.684;2023-03-01T06:28:22;21.95;;;16.40;;
52574;SDS011;38468;48.114;-1.684;2023-03-01T06:30:24;19.92;;;15.90;;
52574;SDS011;38468;48.114;-1.684;2023-03-01T06:32:25;19.27;;;15.55;;
52574;SDS011;38468;48.114;-1.684;2023-03-01T06:34:26;19.05;;;15.77;;
52574;SDS011;38468;48.114;-1.684;2023-03-01T06:36:27;19.33;;;14.40;;
52574;SDS011;38468;48.114;-1.684;2023-03-01T06:38:27;19.85;;;14.50;;
52574;SDS011;38468;48.114;-1.684;2023-03-01T06:40:28;20.23;;;16.25;;
52574;SDS011;38468;48.114;-1.684;2023-03-01T06:42:31;23.38;;;16.10;;
52574;SDS011;38468;48.114;-1.684;2023-03-01T06:44:31;20.42;;;15.57;;
52574;SDS011;38468;48.114;-1.684;2023-03-01T06:46:32;22.65;;;15.32;;
52574;SDS011;38468;48.114;-1.684;2023-03-01T06:48:33;16.63;;;14.57;;
52574;SDS011;38468;48.114;-1.684;2023-03-01T06:52:36;20.00;;;15.05;;
52574;SDS011;38468;48.114;-1.684;2023-03-01T06:54:36;17.88;;;14.65;;
52574;SDS011;38468;48.114;-1.684;2023-03-01T06:56:37;21.33;;;14.63;;
52574;SDS011;38468;48.114;-1.684;2023-03-01T06:58:38;19.42;;;15.15;;
52574;SDS011;38468;48.114;-1.684;2023-03-01T07:00:38;17.52;;;15.32;;
52574;SDS011;38468;48.114;-1.684;2023-03-01T07:02:40;16.73;;;13.73;;
52574;SDS011;38468;48.114;-1.684;2023-03-01T07:04:41;22.50;;;15.52;;
52574;SDS011;38468;48.114;-1.684;2023-03-01T07:06:42;21.42;;;14.35;;
52574;SDS011;38468;48.114;-1.684;2023-03-01T07:08:43;21.15;;;15.05;;
52574;SDS011;38468;48.114;-1.684;2023-03-01T07:10:44;23.45;;;17.35;;
52574;SDS011;38468;48.114;-1.684;2023-03-01T07:12:44;26.38;;;17.60;;
52574;SDS011;38468;48.114;-1.684;2023-03-01T07:14:46;19.90;;;16.30;;
52574;SDS011;38468;48.114;-1.684;2023-03-01T07:16:46;19.67;;;14.98;;
52574;SDS011;38468;48.114;-1.684;2023-03-01T07:18:47;17.35;;;14.38;;
52574;SDS011;38468;48.114;-1.684;2023-03-01T07:20:48;22.35;;;15.07;;
52574;SDS011;38468;48.114;-1.684;2023-03-01T07:22:49;20.00;;;15.15;;
52574;SDS011;38468;48.114;-1.684;2023-03-01T07:24:50;16.73;;;14.10;;
52574;SDS011;38468;48.114;-1.684;2023-03-01T07:26:51;24.92;;;15.57;;
52574;SDS011;38468;48.114;-1.684;2023-03-01T07:28:52;17.92;;;14.30;;
52574;SDS011;38468;48.114;-1.684;2023-03-01T07:30:52;16.48;;;12.23;;
52574;SDS011;38468;48.114;-1.684;2023-03-01T07:32:57;17.80;;;14.40;;
52574;SDS011;38468;48.114;-1.684;2023-03-01T07:34:58;17.27;;;14.32;;
52574;SDS011;38468;48.114;-1.684;2023-03-01T07:36:58;22.05;;;13.68;;
52574;SDS011;38468;48.114;-1.684;2023-03-01T07:38:59;18.52;;;14.20;;
52574;SDS011;38468;48.114;-1.684;2023-03-01T07:41:02;18.92;;;14.60;;
52574;SDS011;38468;48.114;-1.684;2023-03-01T07:43:03;16.85;;;14.57;;
52574;SDS011;38468;48.114;-1.684;2023-03-01T07:45:04;18.58;;;14.73;;
52574;SDS011;38468;48.114;-1.684;2023-03-01T07:47:06;20.45;;;14.18;;
52574;SDS011;38468;48.114;-1.684;2023-03-01T07:49:06;16.38;;;14.23;;
52574;SDS011;38468;48.114;-1.684;2023-03-01T07:51:07;19.63;;;14.27;;
52574;SDS011;38468;48.114;-1.684;2023-03-01T07:53:09;15.02;;;12.40;;
52574;SDS011;38468;48.114;-1.684;2023-03-01T07:55:10;19.02;;;13.13;;
52574;SDS011;38468;48.114;-1.684;2023-03-01T07:57:10;15.52;;;12.85;;
52574;SDS011;38468;48.114;-1.684;2023-03-01T07:59:11;16.25;;;14.18;;
52574;SDS011;38468;48.114;-1.684;2023-03-01T08:01:13;17.02;;;13.57;;
52574;SDS011;38468;48.114;-1.684;2023-03-01T08:03:15;16.83;;;13.43;;
52574;SDS011;38468;48.114;-1.684;2023-03-01T08:05:16;19.60;;;12.55;;
52574;SDS011;38468;48.114;-1.684;2023-03-01T08:07:16;16.90;;;12.68;;
52574;SDS011;38468;48.114;-1.684;2023-03-01T08:09:18;13.82;;;12.40;;
52574;SDS011;38468;48.114;-1.684;2023-03-01T08:11:19;16.02;;;12.82;;
52574;SDS011;38468;48.114;-1.684;2023-03-01T08:13:19;14.00;;;11.90;;
52574;SDS011;38468;48.114;-1.684;2023-03-01T08:17:23;16.25;;;12.75;;
52574;SDS011;38468;48.114;-1.684;2023-03-01T08:19:23;14.35;;;11.95;;
52574;SDS011;38468;48.114;-1.684;2023-03-01T08:21:24;17.90;;;12.15;;
52574;SDS011;38468;48.114;-1.684;2023-03-01T08:23:25;14.48;;;11.95;;
52574;SDS011;38468;48.114;-1.684;2023-03-01T08:25:25;15.85;;;13.85;;
52574;SDS011;38468;48.114;-1.684;2023-03-01T08:27:26;17.83;;;12.48;;
52574;SDS011;38468;48.114;-1.684;2023-03-01T08:29:26;11.90;;;10.65;;
52574;SDS011;38468;48.114;-1.684;2023-03-01T08:31:34;12.77;;;11.30;;
52574;SDS011;38468;48.114;-1.684;2023-03-01T08:33:37;13.82;;;11.35;;
52574;SDS011;38468;48.114;-1.684;2023-03-01T08:35:37;14.15;;;12.65;;
52574;SDS011;38468;48.114;-1.684;2023-03-01T08:37:38;12.52;;;10.90;;
52574;SDS011;38468;48.114;-1.684;2023-03-01T08:39:39;13.43;;;12.02;;
52574;SDS011;38468;48.114;-1.684;2023-03-01T08:41:39;13.00;;;11.63;;
52574;SDS011;38468;48.114;-1.684;2023-03-01T08:43:40;13.20;;;11.40;;
52574;SDS011;38468;48.114;-1.684;2023-03-01T08:45:41;12.35;;;11.15;;
52574;SDS011;38468;48.114;-1.684;2023-03-01T08:47:42;11.55;;;10.40;;
52574;SDS011;38468;48.114;-1.684;2023-03-01T08:49:42;12.48;;;11.20;;
52574;SDS011;38468;48.114;-1.684;2023-03-01T08:51:44;12.25;;;11.15;;
52574;SDS011;38468;48.114;-1.684;2023-03-01T08:53:45;13.23;;;11.50;;
52574;SDS011;38468;48.114;-1.684;2023-03-01T08:55:46;11.38;;;10.20;;
52574;SDS011;38468;48.114;-1.684;2023-03-01T08:57:47;13.98;;;12.63;;
52574;SDS011;38468;48.114;-1.684;2023-03-01T08:59:47;36.35;;;27.80;;
52574;SDS011;38468;48.114;-1.684;2023-03-01T09:01:48;14.23;;;12.65;;
52574;SDS011;38468;48.114;-1.684;2023-03-01T09:03:49;17.67;;;13.45;;
52574;SDS011;38468;48.114;-1.684;2023-03-01T09:05:50;15.05;;;12.95;;
52574;SDS011;38468;48.114;-1.684;2023-03-01T09:07:51;16.23;;;13.27;;
52574;SDS011;38468;48.114;-1.684;2023-03-01T09:09:52;15.55;;;13.27;;
52574;SDS011;38468;48.114;-1.684;2023-03-01T09:11:53;14.50;;;12.77;;
52574;SDS011;38468;48.114;-1.684;2023-03-01T09:13:54;15.30;;;13.90;;
52574;SDS011;38468;48.114;-1.684;2023-03-01T09:15:54;15.63;;;14.07;;
52574;SDS011;38468;48.114;-1.684;2023-03-01T09:17:55;17.33;;;14.45;;
52574;SDS011;38468;48.114;-1.684;2023-03-01T09:19:55;16.02;;;14.43;;
52574;SDS011;38468;48.114;-1.684;2023-03-01T09:21:56;19.73;;;17.63;;
52574;SDS011;38468;48.114;-1.684;2023-03-01T09:23:58;18.55;;;16.65;;
52574;SDS011;38468;48.114;-1.684;2023-03-01T09:25:58;16.80;;;15.07;;
52574;SDS011;38468;48.114;-1.684;2023-03-01T09:27:59;16.85;;;15.07;;
52574;SDS011;38468;48.114;-1.684;2023-03-01T09:30:00;14.18;;;12.68;;
52574;SDS011;38468;48.114;-1.684;2023-03-01T09:32:01;13.93;;;12.43;;
52574;SDS011;38468;48.114;-1.684;2023-03-01T09:34:01;13.60;;;12.20;;
52574;SDS011;38468;48.114;-1.684;2023-03-01T09:36:03;11.32;;;10.20;;
52574;SDS011;38468;48.114;-1.684;2023-03-01T09:38:05;12.30;;;11.10;;
52574;SDS011;38468;48.114;-1.684;2023-03-01T09:40:06;13.23;;;11.02;;
52574;SDS011;38468;48.114;-1.684;2023-03-01T09:42:15;12.43;;;10.98;;
52574;SDS011;38468;48.114;-1.684;2023-03-01T09:44:20;12.52;;;10.27;;
52574;SDS011;38468;48.114;-1.684;2023-03-01T09:46:27;11.18;;;10.15;;
52574;SDS011;38468;48.114;-1.684;2023-03-01T09:48:28;12.35;;;11.07;;
52574;SDS011;38468;48.114;-1.684;2023-03-01T09:50:38;14.38;;;12.02;;
52574;SDS011;38468;48.114;-1.684;2023-03-01T09:55:05;13.63;;;12.27;;
52574;SDS011;38468;48.114;-1.684;2023-03-01T10:04:01;17.40;;;12.15;;
52574;SDS011;38468;48.114;-1.684;2023-03-01T10:06:17;13.52;;;12.18;;
52574;SDS011;38468;48.114;-1.684;2023-03-01T10:10:35;12.02;;;10.82;;
52574;SDS011;38468;48.114;-1.684;2023-03-01T10:12:43;12.73;;;11.43;;
52574;SDS011;38468;48.114;-1.684;2023-03-01T10:17:34;12.18;;;11.07;;
52574;SDS011;38468;48.114;-1.684;2023-03-01T10:19:44;12.20;;;10.90;;
52574;SDS011;38468;48.114;-1.684;2023-03-01T10:21:45;11.77;;;10.60;;
52574;SDS011;38468;48.114;-1.684;2023-03-01T10:23:46;11.88;;;10.63;;
52574;SDS011;38468;48.114;-1.684;2023-03-01T10:26:09;11.98;;;10.80;;
52574;SDS011;38468;48.114;-1.684;2023-03-01T10:28:48;12.00;;;10.60;;
52574;SDS011;38468;48.114;-1.684;2023-03-01T10:31:02;13.30;;;10.65;;
52574;SDS011;38468;48.114;-1.684;2023-03-01T10:33:03;14.00;;;11.23;;
52574;SDS011;38468;48.114;-1.684;2023-03-01T10:35:15;11.82;;;10.77;;
52574;SDS011;38468;48.114;-1.684;2023-03-01T10:37:18;12.18;;;10.60;;
52574;SDS011;38468;48.114;-1.684;2023-03-01T10:39:22;14.38;;;10.10;;
52574;SDS011;38468;48.114;-1.684;2023-03-01T10:41:25;13.02;;;11.30;;
52574;SDS011;38468;48.114;-1.684;2023-03-01T10:45:40;12.27;;;10.98;;
52574;SDS011;38468;48.114;-1.684;2023-03-01T10:47:41;14.23;;;11.80;;
52574;SDS011;38468;48.114;-1.684;2023-03-01T10:50:01;15.40;;;11.00;;
52574;SDS011;38468;48.114;-1.684;2023-03-01T10:52:17;13.95;;;12.45;;
52574;SDS011;38468;48.114;-1.684;2023-03-01T10:54:22;14.80;;;13.13;;
52574;SDS011;38468;48.114;-1.684;2023-03-01T10:56:34;14.85;;;13.38;;
52574;SDS011;38468;48.114;-1.684;2023-03-01T10:59:03;14.27;;;12.05;;
52574;SDS011;38468;48.114;-1.684;2023-03-01T11:01:06;15.02;;;13.52;;
52574;SDS011;38468;48.114;-1.684;2023-03-01T11:05:36;14.32;;;12.52;;
52574;SDS011;38468;48.114;-1.684;2023-03-01T11:07:50;13.27;;;11.98;;
52574;SDS011;38468;48.114;-1.684;2023-03-01T11:09:53;16.60;;;14.85;;
52574;SDS011;38468;48.114;-1.684;2023-03-01T11:11:55;16.17;;;14.68;;
52574;SDS011;38468;48.114;-1.684;2023-03-01T11:14:15;15.38;;;13.98;;
52574;SDS011;38468;48.114;-1.684;2023-03-01T11:16:29;15.70;;;14.10;;
52574;SDS011;38468;48.114;-1.684;2023-03-01T11:18:31;14.27;;;12.57;;
52574;SDS011;38468;48.114;-1.684;2023-03-01T11:20:32;13.80;;;11.75;;
52574;SDS011;38468;48.114;-1.684;2023-03-01T11:22:35;13.18;;;11.98;;
52574;SDS011;38468;48.114;-1.684;2023-03-01T11:26:49;13.40;;;12.10;;
52574;SDS011;38468;48.114;-1.684;2023-03-01T11:28:53;15.02;;;12.88;;
52574;SDS011;38468;48.114;-1.684;2023-03-01T11:35:24;15.10;;;13.60;;
52574;SDS011;38468;48.114;-1.684;2023-03-01T11:40:16;14.63;;;13.15;;
52574;SDS011;38468;48.114;-1.684;2023-03-01T11:42:31;21.75;;;14.45;;
52574;SDS011;38468;48.114;-1.684;2023-03-01T11:44:48;20.70;;;15.30;;
52574;SDS011;38468;48.114;-1.684;2023-03-01T11:54:13;15.23;;;12.93;;
52574;SDS011;38468;48.114;-1.684;2023-03-01T11:56:22;15.52;;;14.07;;
52574;SDS011;38468;48.114;-1.684;2023-03-01T11:59:00;14.23;;;12.82;;
52574;SDS011;38468;48.114;-1.684;2023-03-01T12:01:21;15.00;;;12.65;;
52574;SDS011;38468;48.114;-1.684;2023-03-01T12:10:26;13.45;;;12.05;;
52574;SDS011;38468;48.114;-1.684;2023-03-01T12:12:32;14.70;;;12.90;;
52574;SDS011;38468;48.114;-1.684;2023-03-01T12:17:15;14.55;;;13.05;;
52574;SDS011;38468;48.114;-1.684;2023-03-01T12:19:52;17.98;;;13.43;;
52574;SDS011;38468;48.114;-1.684;2023-03-01T12:24:23;14.43;;;12.93;;
52574;SDS011;38468;48.114;-1.684;2023-03-01T12:26:33;15.35;;;12.63;;
52574;SDS011;38468;48.114;-1.684;2023-03-01T12:31:18;16.88;;;14.65;;
52574;SDS011;38468;48.114;-1.684;2023-03-01T12:42:30;13.98;;;11.93;;
52574;SDS011;38468;48.114;-1.684;2023-03-01T12:49:45;12.13;;;9.60;;
52574;SDS011;38468;48.114;-1.684;2023-03-01T12:51:56;10.43;;;9.43;;
52574;SDS011;38468;48.114;-1.684;2023-03-01T12:53:58;9.85;;;8.95;;
52574;SDS011;38468;48.114;-1.684;2023-03-01T12:56:02;9.10;;;8.25;;
52574;SDS011;38468;48.114;-1.684;2023-03-01T12:58:27;9.63;;;8.82;;
52574;SDS011;38468;48.114;-1.684;2023-03-01T13:00:45;10.30;;;9.30;;
52574;SDS011;38468;48.114;-1.684;2023-03-01T13:11:00;9.27;;;8.48;;
52574;SDS011;38468;48.114;-1.684;2023-03-01T13:13:13;10.43;;;8.25;;
52574;SDS011;38468;48.114;-1.684;2023-03-01T13:17:30;7.13;;;6.45;;